createdAt,value
2023-05-09T00:00:19.853Z,0.00
2023-05-09T00:01:20.085Z,0.00
2023-05-09T00:02:20.430Z,0.00
2023-05-09T00:03:20.876Z,0.00
2023-05-09T00:04:20.990Z,1.00
2023-05-09T00:05:21.648Z,0.00
2023-05-09T00:06:21.586Z,0.00
2023-05-09T00:07:21.876Z,0.00
2023-05-09T00:08:22.304Z,0.00
2023-05-09T00:09:22.415Z,0.00
2023-05-09T00:10:22.738Z,0.00
2023-05-09T00:11:23.035Z,0.00
2023-05-09T00:12:23.420Z,0.00
2023-05-09T00:13:23.741Z,0.00
2023-05-09T00:14:23.806Z,0.00
2023-05-09T00:15:24.117Z,0.00
2023-05-09T00:16:24.533Z,0.00
2023-05-09T00:17:24.777Z,0.00
2023-05-09T00:18:25.117Z,0.00
2023-05-09T00:19:25.376Z,0.00
2023-05-09T00:20:25.772Z,0.00
2023-05-09T00:21:25.994Z,0.00
2023-05-09T00:22:26.306Z,0.00
2023-05-09T00:23:26.622Z,0.00
2023-05-09T00:24:26.869Z,0.00
2023-05-09T00:25:27.129Z,0.00
2023-05-09T00:26:27.348Z,0.00
2023-05-09T00:27:27.612Z,0.00
2023-05-09T00:28:27.956Z,0.00
2023-05-09T00:29:28.291Z,0.00
2023-05-09T00:30:28.571Z,0.00
2023-05-09T00:31:28.890Z,0.00
2023-05-09T00:32:29.240Z,0.00
2023-05-09T00:33:29.597Z,0.00
2023-05-09T00:34:29.874Z,0.00
2023-05-09T00:35:30.134Z,0.00
2023-05-09T00:36:30.533Z,0.00
2023-05-09T00:37:30.827Z,0.00
2023-05-09T00:38:31.139Z,0.00
2023-05-09T00:39:31.447Z,0.00
2023-05-09T00:40:31.807Z,0.00
2023-05-09T00:41:32.048Z,0.00
2023-05-09T00:42:32.372Z,0.00
2023-05-09T00:43:32.766Z,0.00
2023-05-09T00:44:33.069Z,0.00
2023-05-09T00:45:33.335Z,0.00
2023-05-09T00:46:33.800Z,0.00
2023-05-09T00:47:33.996Z,0.00
2023-05-09T00:48:34.358Z,0.00
2023-05-09T00:49:34.583Z,0.00
2023-05-09T00:50:34.898Z,0.00
2023-05-09T00:51:35.216Z,0.00
2023-05-09T00:52:35.684Z,0.00
2023-05-09T00:53:35.789Z,0.00
2023-05-09T00:54:36.162Z,0.00
2023-05-09T00:55:36.440Z,0.00
2023-05-09T00:56:36.776Z,0.00
2023-05-09T00:57:37.173Z,0.00
2023-05-09T00:58:37.344Z,0.00
2023-05-09T00:59:37.676Z,0.00
2023-05-09T01:00:38.047Z,0.00
2023-05-09T01:01:38.314Z,0.00
2023-05-09T01:02:38.767Z,0.00
2023-05-09T01:03:38.966Z,0.00
2023-05-09T01:04:39.257Z,0.00
2023-05-09T01:05:39.529Z,0.00
2023-05-09T01:06:39.949Z,0.00
2023-05-09T01:07:40.266Z,0.00
2023-05-09T01:08:40.484Z,0.00
2023-05-09T01:09:40.803Z,0.00
2023-05-09T01:10:41.163Z,0.00
2023-05-09T01:11:41.429Z,0.00
2023-05-09T01:12:41.787Z,0.00
2023-05-09T01:13:42.086Z,0.00
2023-05-09T01:14:42.441Z,0.00
2023-05-09T01:15:42.763Z,0.00
2023-05-09T01:16:43.043Z,0.00
2023-05-09T01:17:43.363Z,0.00
2023-05-09T01:18:43.691Z,0.00
2023-05-09T01:19:43.993Z,0.00
2023-05-09T01:20:44.312Z,0.00
2023-05-09T01:21:44.560Z,0.00
2023-05-09T01:22:44.910Z,0.00
2023-05-09T01:23:45.206Z,0.00
2023-05-09T01:24:45.510Z,0.00
2023-05-09T01:25:45.817Z,0.00
2023-05-09T01:26:46.157Z,0.00
2023-05-09T01:27:46.498Z,0.00
2023-05-09T01:28:46.781Z,0.00
2023-05-09T01:29:47.188Z,0.00
2023-05-09T01:30:47.460Z,0.00
2023-05-09T01:31:47.860Z,0.00
2023-05-09T01:32:48.075Z,0.00
2023-05-09T01:33:48.209Z,0.00
2023-05-09T01:34:48.595Z,0.00
2023-05-09T01:35:48.846Z,0.00
2023-05-09T01:36:49.189Z,0.00
2023-05-09T01:37:49.465Z,0.00
2023-05-09T01:38:49.737Z,0.00
2023-05-09T01:39:50.027Z,0.00
2023-05-09T01:40:50.414Z,0.00
2023-05-09T01:41:50.668Z,0.00
2023-05-09T01:42:51.066Z,0.00
2023-05-09T01:43:51.264Z,0.00
2023-05-09T01:44:51.583Z,0.00
2023-05-09T01:45:51.859Z,0.00
2023-05-09T01:46:52.262Z,0.00
2023-05-09T01:47:52.536Z,0.00
2023-05-09T01:48:52.810Z,0.00
2023-05-09T01:49:53.185Z,0.00
2023-05-09T01:50:53.503Z,0.00
2023-05-09T01:51:53.753Z,0.00
2023-05-09T01:52:54.069Z,0.00
2023-05-09T01:53:54.384Z,0.00
2023-05-09T01:54:54.731Z,0.00
2023-05-09T01:55:55.021Z,0.00
2023-05-09T01:56:55.304Z,0.00
2023-05-09T01:57:55.581Z,0.00
2023-05-09T01:58:55.899Z,0.00
2023-05-09T01:59:56.168Z,0.00
2023-05-09T02:00:56.544Z,0.00
2023-05-09T02:01:56.782Z,0.00
2023-05-09T02:02:57.179Z,0.00
2023-05-09T02:03:57.331Z,0.00
2023-05-09T02:04:57.733Z,0.00
2023-05-09T02:05:57.955Z,0.00
2023-05-09T02:06:58.243Z,1.00
2023-05-09T02:07:58.615Z,0.00
2023-05-09T02:08:59.412Z,0.00
2023-05-09T02:09:59.215Z,0.00
2023-05-09T02:10:59.604Z,0.00
2023-05-09T02:11:59.838Z,0.00
2023-05-09T02:13:00.203Z,0.00
2023-05-09T02:14:00.461Z,0.00
2023-05-09T02:15:00.792Z,0.00
2023-05-09T02:16:01.096Z,0.00
2023-05-09T02:17:01.477Z,0.00
2023-05-09T02:18:01.771Z,0.00
2023-05-09T02:19:01.881Z,0.00
2023-05-09T02:20:02.173Z,0.00
2023-05-09T02:21:02.544Z,0.00
2023-05-09T02:22:02.783Z,0.00
2023-05-09T02:23:03.193Z,0.00
2023-05-09T02:24:03.348Z,0.00
2023-05-09T02:25:03.675Z,0.00
2023-05-09T02:26:03.974Z,0.00
2023-05-09T02:27:04.393Z,1.00
2023-05-09T02:28:04.612Z,0.00
2023-05-09T02:29:04.919Z,0.00
2023-05-09T02:30:05.262Z,0.00
2023-05-09T02:31:05.548Z,0.00
2023-05-09T02:32:05.884Z,0.00
2023-05-09T02:33:06.276Z,0.00
2023-05-09T02:34:06.461Z,0.00
2023-05-09T02:35:06.742Z,0.00
2023-05-09T02:36:07.036Z,0.00
2023-05-09T02:37:07.779Z,0.00
2023-05-09T02:38:07.645Z,0.00
2023-05-09T02:39:08.053Z,0.00
2023-05-09T02:40:08.274Z,0.00
2023-05-09T02:41:08.589Z,0.00
2023-05-09T02:42:09.014Z,0.00
2023-05-09T02:43:09.152Z,0.00
2023-05-09T02:44:09.489Z,0.00
2023-05-09T02:45:10.656Z,0.00
2023-05-09T02:46:10.171Z,0.00
2023-05-09T02:47:10.464Z,0.00
2023-05-09T02:48:10.667Z,0.00
2023-05-09T02:49:16.812Z,0.00
2023-05-09T02:50:12.229Z,0.00
2023-05-09T02:51:11.491Z,0.00
2023-05-09T02:52:11.848Z,0.00
2023-05-09T02:53:12.145Z,0.00
2023-05-09T02:54:12.431Z,0.00
2023-05-09T02:55:12.933Z,0.00
2023-05-09T02:56:13.086Z,0.00
2023-05-09T02:57:13.286Z,0.00
2023-05-09T02:58:14.974Z,1.00
2023-05-09T02:59:13.878Z,0.00
2023-05-09T03:00:13.997Z,1.00
2023-05-09T03:01:14.462Z,0.00
2023-05-09T03:02:14.618Z,0.00
2023-05-09T03:03:14.970Z,1.00
2023-05-09T03:04:15.191Z,0.00
2023-05-09T03:05:15.705Z,0.00
2023-05-09T03:06:15.844Z,0.00
2023-05-09T03:07:16.157Z,0.00
2023-05-09T03:08:16.446Z,0.00
2023-05-09T03:09:16.791Z,0.00
2023-05-09T03:10:17.976Z,0.00
2023-05-09T03:11:17.366Z,0.00
2023-05-09T03:12:17.650Z,0.00
2023-05-09T03:13:18.081Z,0.00
2023-05-09T03:14:18.220Z,0.00
2023-05-09T03:15:18.479Z,0.00
2023-05-09T03:16:18.827Z,0.00
2023-05-09T03:17:19.077Z,1.00
2023-05-09T03:18:19.249Z,1.00
2023-05-09T03:19:19.651Z,1.00
2023-05-09T03:20:19.817Z,1.00
2023-05-09T03:21:20.269Z,0.00
2023-05-09T03:22:20.504Z,0.00
2023-05-09T03:23:20.871Z,0.00
2023-05-09T03:24:21.158Z,0.00
2023-05-09T03:25:21.458Z,0.00
2023-05-09T03:26:21.708Z,0.00
2023-05-09T03:27:22.002Z,1.00
2023-05-09T03:28:22.331Z,0.00
2023-05-09T03:29:22.748Z,1.00
2023-05-09T03:30:22.873Z,2.00
2023-05-09T03:31:23.265Z,1.00
2023-05-09T03:32:23.502Z,1.00
2023-05-09T03:33:23.712Z,1.00
2023-05-09T03:34:23.992Z,1.00
2023-05-09T03:35:24.351Z,1.00
2023-05-09T03:36:24.548Z,2.00
2023-05-09T03:37:26.879Z,2.00
2023-05-09T03:38:25.110Z,3.00
2023-05-09T03:39:25.454Z,4.00
2023-05-09T03:40:25.875Z,4.00
2023-05-09T03:41:26.012Z,4.00
2023-05-09T03:42:26.348Z,5.00
2023-05-09T03:43:26.811Z,6.00
2023-05-09T03:44:26.967Z,6.00
2023-05-09T03:45:27.340Z,7.00
2023-05-09T03:46:27.732Z,8.00
2023-05-09T03:47:27.997Z,8.00
2023-05-09T03:48:28.131Z,8.00
2023-05-09T03:49:28.451Z,9.00
2023-05-09T03:50:28.699Z,10.00
2023-05-09T03:51:29.025Z,11.00
2023-05-09T03:52:29.343Z,10.00
2023-05-09T03:53:29.505Z,10.00
2023-05-09T03:54:29.825Z,13.00
2023-05-09T03:55:30.151Z,14.00
2023-05-09T03:56:30.526Z,10.00
2023-05-09T03:57:30.735Z,21.00
2023-05-09T03:58:30.942Z,21.00
2023-05-09T03:59:31.299Z,25.00
2023-05-09T04:00:31.532Z,30.00
2023-05-09T04:01:31.892Z,33.00
2023-05-09T04:02:32.255Z,33.00
2023-05-09T04:03:32.486Z,32.00
2023-05-09T04:04:32.694Z,32.00
2023-05-09T04:05:32.950Z,36.00
2023-05-09T04:06:33.199Z,42.00
2023-05-09T04:07:33.494Z,45.00
2023-05-09T04:08:34.008Z,42.00
2023-05-09T04:09:34.234Z,46.00
2023-05-09T04:10:34.411Z,44.00
2023-05-09T04:11:34.749Z,45.00
2023-05-09T04:12:35.094Z,46.00
2023-05-09T04:13:35.356Z,41.00
2023-05-09T04:14:35.596Z,47.00
2023-05-09T04:15:35.913Z,57.00
2023-05-09T04:16:36.222Z,60.00
2023-05-09T04:17:36.452Z,65.00
2023-05-09T04:18:36.634Z,71.00
2023-05-09T04:19:36.964Z,71.00
2023-05-09T04:20:37.282Z,65.00
2023-05-09T04:21:37.542Z,69.00
2023-05-09T04:22:37.902Z,72.00
2023-05-09T04:23:38.109Z,69.00
2023-05-09T04:24:38.316Z,75.00
2023-05-09T04:25:38.656Z,75.00
2023-05-09T04:26:38.907Z,75.00
2023-05-09T04:27:39.273Z,80.00
2023-05-09T04:28:39.380Z,91.00
2023-05-09T04:29:39.747Z,94.00
2023-05-09T04:30:39.994Z,102.00
2023-05-09T04:31:40.426Z,101.00
2023-05-09T04:32:40.638Z,105.00
2023-05-09T04:33:40.948Z,100.00
2023-05-09T04:34:41.275Z,100.00
2023-05-09T04:35:41.611Z,98.00
2023-05-09T04:36:42.039Z,98.00
2023-05-09T04:37:42.215Z,105.00
2023-05-09T04:38:42.493Z,121.00
2023-05-09T04:39:42.731Z,138.00
2023-05-09T04:40:43.171Z,134.00
2023-05-09T04:41:43.358Z,137.00
2023-05-09T04:42:43.599Z,150.00
2023-05-09T04:43:43.896Z,165.00
2023-05-09T04:44:44.162Z,170.00
2023-05-09T04:45:44.414Z,190.00
2023-05-09T04:46:44.635Z,194.00
2023-05-09T04:47:44.966Z,200.00
2023-05-09T04:48:45.168Z,195.00
2023-05-09T04:49:45.419Z,199.00
2023-05-09T04:50:45.625Z,211.00
2023-05-09T04:51:45.992Z,205.00
2023-05-09T04:52:46.214Z,203.00
2023-05-09T04:53:46.558Z,223.00
2023-05-09T04:54:46.905Z,231.00
2023-05-09T04:55:47.069Z,239.00
2023-05-09T04:56:48.871Z,227.00
2023-05-09T04:57:47.619Z,215.00
2023-05-09T04:58:47.884Z,248.00
2023-05-09T04:59:48.112Z,246.00
2023-05-09T05:00:48.526Z,155.00
2023-05-09T05:01:48.822Z,318.00
2023-05-09T05:02:49.096Z,244.00
2023-05-09T05:03:49.312Z,255.00
2023-05-09T05:04:49.777Z,263.00
2023-05-09T05:05:49.927Z,279.00
2023-05-09T05:06:50.159Z,288.00
2023-05-09T05:07:50.398Z,295.00
2023-05-09T05:08:50.720Z,317.00
2023-05-09T05:09:51.018Z,320.00
2023-05-09T05:10:51.255Z,343.00
2023-05-09T05:12:00.863Z,350.00
2023-05-09T05:12:52.871Z,374.00
2023-05-09T05:13:52.073Z,368.00
2023-05-09T05:14:52.408Z,395.00
2023-05-09T05:15:52.793Z,369.00
2023-05-09T05:16:53.072Z,378.00
2023-05-09T05:17:53.420Z,389.00
2023-05-09T05:18:53.602Z,409.00
2023-05-09T05:19:53.848Z,370.00
2023-05-09T05:20:54.207Z,391.00
2023-05-09T05:21:54.417Z,406.00
2023-05-09T05:22:54.796Z,418.00
2023-05-09T05:23:55.084Z,436.00
2023-05-09T05:24:55.315Z,473.00
2023-05-09T05:25:55.567Z,473.00
2023-05-09T05:26:55.938Z,477.00
2023-05-09T05:27:56.242Z,495.00
2023-05-09T05:28:56.482Z,497.00
2023-05-09T05:29:56.671Z,508.00
2023-05-09T05:30:57.074Z,532.00
2023-05-09T05:31:57.323Z,537.00
2023-05-09T05:32:57.553Z,544.00
2023-05-09T05:33:57.851Z,580.00
2023-05-09T05:34:58.068Z,583.00
2023-05-09T05:35:58.378Z,581.00
2023-05-09T05:36:58.691Z,596.00
2023-05-09T05:37:59.121Z,598.00
2023-05-09T05:38:59.252Z,654.00
2023-05-09T05:39:59.538Z,685.00
2023-05-09T05:40:59.740Z,683.00
2023-05-09T05:42:00.930Z,663.00
2023-05-09T05:43:00.325Z,733.00
2023-05-09T05:44:00.556Z,740.00
2023-05-09T05:45:00.818Z,749.00
2023-05-09T05:46:01.162Z,850.00
2023-05-09T05:47:01.421Z,873.00
2023-05-09T05:48:01.751Z,879.00
2023-05-09T05:49:01.960Z,870.00
2023-05-09T05:50:02.260Z,779.00
2023-05-09T05:51:02.490Z,747.00
2023-05-09T05:52:02.810Z,753.00
2023-05-09T05:53:03.159Z,785.00
2023-05-09T05:54:04.329Z,830.00
2023-05-09T05:55:03.722Z,840.00
2023-05-09T05:56:04.105Z,889.00
2023-05-09T05:57:04.296Z,877.00
2023-05-09T05:58:04.784Z,879.00
2023-05-09T05:59:04.860Z,860.00
2023-05-09T06:00:05.193Z,839.00
2023-05-09T06:01:05.415Z,958.00
2023-05-09T06:02:05.847Z,924.00
2023-05-09T06:03:06.004Z,901.00
2023-05-09T06:04:06.270Z,892.00
2023-05-09T06:05:06.469Z,985.00
2023-05-09T06:06:06.770Z,927.00
2023-05-09T06:07:07.099Z,823.00
2023-05-09T06:08:07.266Z,777.00
2023-05-09T06:09:07.657Z,763.00
2023-05-09T06:10:08.047Z,741.00
2023-05-09T06:11:08.245Z,738.00
2023-05-09T06:12:08.532Z,689.00
2023-05-09T06:13:08.951Z,658.00
2023-05-09T06:14:09.103Z,682.00
2023-05-09T06:15:09.419Z,687.00
2023-05-09T06:16:18.521Z,732.00
2023-05-09T06:17:11.365Z,809.00
2023-05-09T06:18:10.282Z,899.00
2023-05-09T06:19:10.370Z,933.00
2023-05-09T06:20:10.753Z,885.00
2023-05-09T06:21:11.033Z,862.00
2023-05-09T06:22:11.284Z,855.00
2023-05-09T06:23:11.532Z,828.00
2023-05-09T06:24:20.111Z,731.00
2023-05-09T06:25:13.391Z,669.00
2023-05-09T06:26:12.482Z,709.00
2023-05-09T06:27:12.838Z,847.00
2023-05-09T06:28:13.169Z,1044.00
2023-05-09T06:29:13.366Z,1255.00
2023-05-09T06:30:24.742Z,1352.00
2023-05-09T06:31:14.949Z,1389.00
2023-05-09T06:32:14.180Z,1382.00
2023-05-09T06:33:14.446Z,1397.00
2023-05-09T06:34:14.735Z,1378.00
2023-05-09T06:35:16.168Z,1455.00
2023-05-09T06:36:15.337Z,1323.00
2023-05-09T06:37:15.605Z,1337.00
2023-05-09T06:38:15.850Z,1298.00
2023-05-09T06:39:16.213Z,1183.00
2023-05-09T06:40:16.456Z,1173.00
2023-05-09T06:41:16.743Z,1364.00
2023-05-09T06:42:17.043Z,1396.00
2023-05-09T06:43:17.312Z,1130.00
2023-05-09T06:44:18.427Z,1063.00
2023-05-09T06:45:18.198Z,1110.00
2023-05-09T06:46:18.063Z,1187.00
2023-05-09T06:47:18.397Z,1034.00
2023-05-09T06:48:19.556Z,848.00
2023-05-09T06:49:18.883Z,847.00
2023-05-09T06:50:19.271Z,928.00
2023-05-09T06:51:19.733Z,904.00
2023-05-09T06:52:20.735Z,830.00
2023-05-09T06:53:20.134Z,849.00
2023-05-09T06:54:20.361Z,843.00
2023-05-09T06:55:20.688Z,1006.00
2023-05-09T06:56:21.234Z,1237.00
2023-05-09T06:57:21.349Z,1159.00
2023-05-09T06:58:21.867Z,1030.00
2023-05-09T06:59:22.056Z,1005.00
2023-05-09T07:00:22.292Z,1056.00
2023-05-09T07:01:22.670Z,918.00
2023-05-09T07:02:22.891Z,834.00
2023-05-09T07:03:23.216Z,881.00
2023-05-09T07:04:23.511Z,902.00
2023-05-09T07:05:23.713Z,903.00
2023-05-09T07:06:23.888Z,848.00
2023-05-09T07:07:24.243Z,855.00
2023-05-09T07:08:24.630Z,856.00
2023-05-09T07:09:24.735Z,918.00
2023-05-09T07:10:25.055Z,967.00
2023-05-09T07:11:25.330Z,977.00
2023-05-09T07:12:25.662Z,1147.00
2023-05-09T07:13:26.074Z,1228.00
2023-05-09T07:14:26.120Z,1310.00
2023-05-09T07:15:37.255Z,1343.00
2023-05-09T07:16:27.757Z,1325.00
2023-05-09T07:17:27.121Z,1310.00
2023-05-09T07:18:27.365Z,1315.00
2023-05-09T07:19:27.656Z,1330.00
2023-05-09T07:20:28.062Z,1364.00
2023-05-09T07:21:28.132Z,1516.00
2023-05-09T07:22:30.640Z,1642.00
2023-05-09T07:23:28.756Z,1512.00
2023-05-09T07:24:28.952Z,1841.00
2023-05-09T07:25:29.278Z,2081.00
2023-05-09T07:26:29.482Z,2227.00
2023-05-09T07:27:29.784Z,2331.00
2023-05-09T07:28:29.988Z,2560.00
2023-05-09T07:29:30.415Z,2486.00
2023-05-09T07:30:30.496Z,2478.00
2023-05-09T07:31:30.719Z,2382.00
2023-05-09T07:32:30.976Z,2335.00
2023-05-09T07:33:31.313Z,1956.00
2023-05-09T07:34:31.673Z,1645.00
2023-05-09T07:35:33.534Z,1481.00
2023-05-09T07:36:34.751Z,1590.00
2023-05-09T07:37:32.494Z,1749.00
2023-05-09T07:38:32.642Z,1751.00
2023-05-09T07:39:32.976Z,1402.00
2023-05-09T07:40:33.186Z,1416.00
2023-05-09T07:41:33.686Z,1354.00
2023-05-09T07:42:34.853Z,1390.00
2023-05-09T07:43:34.032Z,1518.00
2023-05-09T07:44:34.292Z,1628.00
2023-05-09T07:45:34.611Z,1779.00
2023-05-09T07:46:34.807Z,1932.00
2023-05-09T07:47:35.346Z,1743.00
2023-05-09T07:48:35.483Z,1615.00
2023-05-09T07:49:35.695Z,1758.00
2023-05-09T07:50:36.012Z,1883.00
2023-05-09T07:51:36.259Z,1729.00
2023-05-09T07:52:36.705Z,1484.00
2023-05-09T07:53:36.927Z,1450.00
2023-05-09T07:54:37.151Z,1482.00
2023-05-09T07:55:37.512Z,1367.00
2023-05-09T07:56:37.681Z,1392.00
2023-05-09T07:57:38.285Z,1214.00
2023-05-09T07:58:40.117Z,1102.00
2023-05-09T07:59:38.525Z,1030.00
2023-05-09T08:00:39.541Z,1117.00
2023-05-09T08:01:39.005Z,1264.00
2023-05-09T08:02:39.732Z,1337.00
2023-05-09T08:03:39.882Z,1215.00
2023-05-09T08:04:39.867Z,1292.00
2023-05-09T08:05:40.093Z,1575.00
2023-05-09T08:06:41.921Z,1738.00
2023-05-09T08:07:41.232Z,1573.00
2023-05-09T08:08:40.984Z,1519.00
2023-05-09T08:09:41.262Z,1764.00
2023-05-09T08:10:41.567Z,1618.00
2023-05-09T08:11:41.844Z,1622.00
2023-05-09T08:12:42.119Z,1860.00
2023-05-09T08:13:42.472Z,2491.00
2023-05-09T08:14:42.718Z,3378.00
2023-05-09T08:15:43.996Z,2865.00
2023-05-09T08:16:43.237Z,2526.00
2023-05-09T08:17:43.585Z,1974.00
2023-05-09T08:18:44.182Z,1750.00
2023-05-09T08:19:44.159Z,1788.00
2023-05-09T08:20:44.508Z,1856.00
2023-05-09T08:21:45.264Z,2175.00
2023-05-09T08:22:45.048Z,2330.00
2023-05-09T08:23:45.235Z,2226.00
2023-05-09T08:24:45.659Z,1915.00
2023-05-09T08:25:45.927Z,1790.00
2023-05-09T08:26:46.202Z,1836.00
2023-05-09T08:27:46.558Z,1683.00
2023-05-09T08:28:46.737Z,1570.00
2023-05-09T08:29:47.149Z,1692.00
2023-05-09T08:30:48.028Z,1881.00
2023-05-09T08:31:47.558Z,2214.00
2023-05-09T08:32:47.993Z,2271.00
2023-05-09T08:33:48.228Z,1893.00
2023-05-09T08:34:48.464Z,1996.00
2023-05-09T08:35:48.944Z,2203.00
2023-05-09T08:36:48.952Z,2460.00
2023-05-09T08:37:49.202Z,2485.00
2023-05-09T08:38:49.590Z,2413.00
2023-05-09T08:39:49.906Z,2451.00
2023-05-09T08:40:51.131Z,2513.00
2023-05-09T08:41:50.386Z,2602.00
2023-05-09T08:42:50.686Z,2426.00
2023-05-09T08:43:51.101Z,2053.00
2023-05-09T08:44:51.232Z,1892.00
2023-05-09T08:45:51.597Z,2264.00
2023-05-09T08:46:51.844Z,2426.00
2023-05-09T08:47:52.210Z,2097.00
2023-05-09T08:48:52.694Z,1778.00
2023-05-09T08:49:52.804Z,1652.00
2023-05-09T08:50:53.131Z,1702.00
2023-05-09T08:51:53.356Z,1637.00
2023-05-09T08:52:55.064Z,1557.00
2023-05-09T08:53:53.911Z,1691.00
2023-05-09T08:54:54.254Z,1616.00
2023-05-09T08:55:54.476Z,1598.00
2023-05-09T08:56:54.836Z,1690.00
2023-05-09T08:57:55.067Z,2270.00
2023-05-09T08:58:55.291Z,2200.00
2023-05-09T08:59:55.673Z,2106.00
2023-05-09T09:00:55.981Z,1985.00
2023-05-09T09:01:56.266Z,1825.00
2023-05-09T09:02:57.068Z,2036.00
2023-05-09T09:03:57.210Z,2430.00
2023-05-09T09:04:58.293Z,2399.00
2023-05-09T09:05:57.604Z,2753.00
2023-05-09T09:06:58.546Z,2825.00
2023-05-09T09:07:58.007Z,2921.00
2023-05-09T09:08:58.374Z,2541.00
2023-05-09T09:09:58.500Z,2492.00
2023-05-09T09:10:58.874Z,2245.00
2023-05-09T09:11:59.179Z,2260.00
2023-05-09T09:13:00.444Z,1919.00
2023-05-09T09:13:59.882Z,1746.00
2023-05-09T09:14:59.981Z,1581.00
2023-05-09T09:16:02.607Z,1514.00
2023-05-09T09:17:00.584Z,1371.00
2023-05-09T09:18:00.886Z,1355.00
2023-05-09T09:19:01.598Z,1208.00
2023-05-09T09:20:01.312Z,1415.00
2023-05-09T09:21:01.530Z,1596.00
2023-05-09T09:22:01.922Z,1822.00
2023-05-09T09:23:06.054Z,2007.00
2023-05-09T09:24:02.550Z,2128.00
2023-05-09T09:25:02.726Z,2023.00
2023-05-09T09:26:02.897Z,2206.00
2023-05-09T09:27:03.235Z,2508.00
2023-05-09T09:28:03.466Z,2396.00
2023-05-09T09:29:03.757Z,2446.00
2023-05-09T09:30:04.206Z,2404.00
2023-05-09T09:31:04.310Z,2426.00
2023-05-09T09:32:04.686Z,2076.00
2023-05-09T09:33:05.130Z,1813.00
2023-05-09T09:34:05.311Z,1703.00
2023-05-09T09:35:06.038Z,1410.00
2023-05-09T09:36:05.696Z,1399.00
2023-05-09T09:37:06.094Z,1524.00
2023-05-09T09:38:06.260Z,1344.00
2023-05-09T09:39:06.645Z,1164.00
2023-05-09T09:40:06.914Z,1106.00
2023-05-09T09:41:07.130Z,1132.00
2023-05-09T09:42:07.198Z,1146.00
2023-05-09T09:43:07.573Z,926.00
2023-05-09T09:44:07.789Z,859.00
2023-05-09T09:45:08.073Z,927.00
2023-05-09T09:46:08.459Z,923.00
2023-05-09T09:47:08.616Z,973.00
2023-05-09T09:48:09.179Z,1086.00
2023-05-09T09:49:09.222Z,1084.00
2023-05-09T09:50:09.498Z,939.00
2023-05-09T09:51:09.785Z,907.00
2023-05-09T09:52:10.077Z,841.00
2023-05-09T09:53:10.285Z,887.00
2023-05-09T09:54:10.668Z,993.00
2023-05-09T09:55:10.840Z,1104.00
2023-05-09T09:56:11.283Z,1110.00
2023-05-09T09:57:11.423Z,1095.00
2023-05-09T09:58:11.637Z,968.00
2023-05-09T09:59:12.038Z,920.00
2023-05-09T10:00:12.773Z,967.00
2023-05-09T10:01:12.734Z,1110.00
2023-05-09T10:02:12.934Z,1401.00
2023-05-09T10:03:13.158Z,1655.00
2023-05-09T10:04:13.632Z,1853.00
2023-05-09T10:05:13.816Z,1900.00
2023-05-09T10:06:14.168Z,2026.00
2023-05-09T10:07:15.238Z,2106.00
2023-05-09T10:08:14.628Z,2066.00
2023-05-09T10:09:14.982Z,2405.00
2023-05-09T10:10:15.617Z,2874.00
2023-05-09T10:11:15.556Z,3267.00
2023-05-09T10:12:18.410Z,3535.00
2023-05-09T10:13:16.075Z,3840.00
2023-05-09T10:14:16.372Z,3931.00
2023-05-09T10:15:16.694Z,4471.00
2023-05-09T10:16:19.503Z,3928.00
2023-05-09T10:17:18.163Z,3216.00
2023-05-09T10:18:17.582Z,3380.00
2023-05-09T10:19:17.798Z,8968.00
2023-05-09T10:20:18.128Z,5807.00
2023-05-09T10:21:18.418Z,6202.00
2023-05-09T10:22:18.632Z,4603.00
2023-05-09T10:23:19.181Z,5351.00
2023-05-09T10:24:19.207Z,11519.00
2023-05-09T10:25:19.394Z,12721.00
2023-05-09T10:26:19.602Z,9170.00
2023-05-09T10:27:19.978Z,4734.00
2023-05-09T10:28:20.223Z,10894.00
2023-05-09T10:29:20.532Z,3343.00
2023-05-09T10:30:20.835Z,3043.00
2023-05-09T10:31:21.145Z,2152.00
2023-05-09T10:32:21.387Z,2615.00
2023-05-09T10:33:21.686Z,14419.00
2023-05-09T10:34:21.908Z,4012.00
2023-05-09T10:35:22.196Z,5462.00
2023-05-09T10:36:22.479Z,4413.00
2023-05-09T10:37:22.745Z,11168.00
2023-05-09T10:38:22.968Z,10525.00
2023-05-09T10:39:23.281Z,11506.00
2023-05-09T10:40:23.637Z,7217.00
2023-05-09T10:41:24.085Z,15998.00
2023-05-09T10:42:24.106Z,10871.00
2023-05-09T10:43:24.463Z,4633.00
2023-05-09T10:44:24.676Z,6498.00
2023-05-09T10:45:25.050Z,4903.00
2023-05-09T10:46:25.297Z,2396.00
2023-05-09T10:47:25.695Z,14426.00
2023-05-09T10:48:25.891Z,2764.00
2023-05-09T10:49:26.162Z,2496.00
2023-05-09T10:50:26.460Z,1877.00
2023-05-09T10:51:26.753Z,1799.00
2023-05-09T10:52:27.053Z,1681.00
2023-05-09T10:53:27.252Z,1617.00
2023-05-09T10:54:29.293Z,1594.00
2023-05-09T10:55:27.985Z,2169.00
2023-05-09T10:56:28.107Z,3544.00
2023-05-09T10:57:28.957Z,6644.00
2023-05-09T10:58:28.751Z,4965.00
2023-05-09T10:59:29.045Z,4713.00
2023-05-09T11:00:29.764Z,4977.00
2023-05-09T11:01:29.631Z,4872.00
2023-05-09T11:02:29.981Z,5353.00
2023-05-09T11:03:30.303Z,3904.00
2023-05-09T11:04:30.457Z,2793.00
2023-05-09T11:05:30.719Z,5189.00
2023-05-09T11:06:30.936Z,6596.00
2023-05-09T11:07:31.468Z,6035.00
2023-05-09T11:08:31.710Z,3752.00
2023-05-09T11:09:31.976Z,3665.00
2023-05-09T11:10:32.239Z,4089.00
2023-05-09T11:11:32.593Z,4127.00
2023-05-09T11:12:32.766Z,3546.00
2023-05-09T11:13:33.238Z,3533.00
2023-05-09T11:14:33.419Z,2810.00
2023-05-09T11:15:33.812Z,3574.00
2023-05-09T11:16:34.129Z,4138.00
2023-05-09T11:17:34.335Z,3083.00
2023-05-09T11:18:34.582Z,2947.00
2023-05-09T11:19:34.897Z,3750.00
2023-05-09T11:20:35.172Z,3838.00
2023-05-09T11:21:35.354Z,2007.00
2023-05-09T11:22:35.694Z,2025.00
2023-05-09T11:23:35.981Z,2535.00
2023-05-09T11:24:36.360Z,4014.00
2023-05-09T11:25:36.585Z,3374.00
2023-05-09T11:26:36.725Z,3277.00
2023-05-09T11:27:37.032Z,2895.00
2023-05-09T11:28:37.274Z,3409.00
2023-05-09T11:29:37.549Z,3247.00
2023-05-09T11:30:37.827Z,3215.00
2023-05-09T11:31:38.144Z,3580.00
2023-05-09T11:32:38.321Z,3484.00
2023-05-09T11:33:38.672Z,3478.00
2023-05-09T11:34:39.012Z,3546.00
2023-05-09T11:35:39.358Z,3309.00
2023-05-09T11:36:39.512Z,3131.00
2023-05-09T11:37:39.800Z,3525.00
2023-05-09T11:38:40.072Z,3338.00
2023-05-09T11:39:40.390Z,2789.00
2023-05-09T11:40:40.599Z,2193.00
2023-05-09T11:41:41.140Z,1789.00
2023-05-09T11:42:41.216Z,1686.00
2023-05-09T11:43:41.537Z,2027.00
2023-05-09T11:44:41.758Z,2407.00
2023-05-09T11:45:41.933Z,2467.00
2023-05-09T11:46:42.320Z,2571.00
2023-05-09T11:47:42.670Z,2304.00
2023-05-09T11:48:43.009Z,2018.00
2023-05-09T11:49:47.233Z,1846.00
2023-05-09T11:50:43.524Z,1713.00
2023-05-09T11:51:43.815Z,1546.00
2023-05-09T11:52:44.046Z,1361.00
2023-05-09T11:53:44.407Z,1090.00
2023-05-09T11:54:44.656Z,804.00
2023-05-09T11:55:45.930Z,660.00
2023-05-09T11:56:45.184Z,605.00
2023-05-09T11:57:46.502Z,591.00
2023-05-09T11:58:45.862Z,638.00
2023-05-09T11:59:46.092Z,752.00
2023-05-09T12:00:46.472Z,905.00
2023-05-09T12:01:46.921Z,898.00
2023-05-09T12:02:47.217Z,1256.00
2023-05-09T12:03:47.397Z,2127.00
2023-05-09T12:04:47.604Z,3102.00
2023-05-09T12:05:48.021Z,3587.00
2023-05-09T12:06:48.236Z,3623.00
2023-05-09T12:07:48.467Z,4077.00
2023-05-09T12:08:48.711Z,4274.00
2023-05-09T12:09:48.990Z,4246.00
2023-05-09T12:10:49.213Z,4051.00
2023-05-09T12:11:50.188Z,4256.00
2023-05-09T12:12:49.863Z,3844.00
2023-05-09T12:13:50.223Z,3784.00
2023-05-09T12:14:50.254Z,4312.00
2023-05-09T12:15:50.750Z,4899.00
2023-05-09T12:16:50.857Z,5337.00
2023-05-09T12:17:52.024Z,5447.00
2023-05-09T12:18:51.473Z,5829.00
2023-05-09T12:19:51.705Z,5298.00
2023-05-09T12:20:51.975Z,4869.00
2023-05-09T12:21:52.231Z,4690.00
2023-05-09T12:22:52.539Z,4452.00
2023-05-09T12:23:53.472Z,4501.00
2023-05-09T12:24:53.082Z,3933.00
2023-05-09T12:25:53.491Z,3297.00
2023-05-09T12:26:53.531Z,2983.00
2023-05-09T12:27:53.926Z,2405.00
2023-05-09T12:28:54.192Z,1977.00
2023-05-09T12:29:55.130Z,1918.00
2023-05-09T12:30:54.870Z,2196.00
2023-05-09T12:31:54.948Z,2167.00
2023-05-09T12:32:55.334Z,2198.00
2023-05-09T12:33:55.457Z,2030.00
2023-05-09T12:34:55.815Z,2088.00
2023-05-09T12:35:56.142Z,2239.00
2023-05-09T12:36:56.391Z,2222.00